> <
  • 1
  • 2

Novidades

  • Temos o prazer de lhe apresentar… Ler mais +
  • Está disponível a secção Multimédia no… Ler mais +
  • 1
[source: ADDS]
METAR
LPPR 240700Z 19005KT 3500 BR BKN001 BKN004 18/18 Q1015 =
TAF
TAF LPPR 240500Z 2406/2506 22007KT 3000 BR SCT000 BKN002 TEMPO 2406/2409 1500 PRFG BKN000 BECMG 2409/2412 9999 NSW SCT008 BECMG 2412/2415 26008KT PROB30 TEMPO 2412/2419 5000 BR BKN008 BECMG 2419/2422 VRB03KT 3000 BR BKN002 PROB30 2422/2506 0600 FG VV001 =

contactos